sensor_id;sensor_type;location;lat;lon;timestamp;P1;durP1;ratioP1;P2;durP2;ratioP2
51296;SDS011;37380;45.186;9.792;2022-10-30T00:01:05;42.15;;;30.95;;
51296;SDS011;37380;45.186;9.792;2022-10-30T00:03:39;44.50;;;27.90;;
51296;SDS011;37380;45.186;9.792;2022-10-30T00:06:33;36.85;;;29.42;;
51296;SDS011;37380;45.186;9.792;2022-10-30T00:09:00;46.05;;;30.35;;
51296;SDS011;37380;45.186;9.792;2022-10-30T00:11:27;49.30;;;31.88;;
51296;SDS011;37380;45.186;9.792;2022-10-30T00:13:54;40.15;;;29.58;;
51296;SDS011;37380;45.186;9.792;2022-10-30T00:16:21;39.95;;;28.35;;
51296;SDS011;37380;45.186;9.792;2022-10-30T00:18:48;40.00;;;29.95;;
51296;SDS011;37380;45.186;9.792;2022-10-30T00:21:15;40.80;;;29.33;;
51296;SDS011;37380;45.186;9.792;2022-10-30T00:23:47;37.33;;;29.30;;
51296;SDS011;37380;45.186;9.792;2022-10-30T00:26:15;43.53;;;30.50;;
51296;SDS011;37380;45.186;9.792;2022-10-30T00:28:43;37.08;;;28.75;;
51296;SDS011;37380;45.186;9.792;2022-10-30T00:31:16;50.72;;;29.90;;
51296;SDS011;37380;45.186;9.792;2022-10-30T00:34:11;47.03;;;29.45;;
51296;SDS011;37380;45.186;9.792;2022-10-30T00:36:44;41.63;;;30.27;;
51296;SDS011;37380;45.186;9.792;2022-10-30T00:39:39;49.60;;;29.88;;
51296;SDS011;37380;45.186;9.792;2022-10-30T00:42:09;43.75;;;30.08;;
51296;SDS011;37380;45.186;9.792;2022-10-30T00:44:44;44.63;;;28.80;;
51296;SDS011;37380;45.186;9.792;2022-10-30T00:52:15;48.88;;;33.95;;
51296;SDS011;37380;45.186;9.792;2022-10-30T00:54:48;51.95;;;31.33;;
51296;SDS011;37380;45.186;9.792;2022-10-30T00:57:50;50.65;;;31.77;;
51296;SDS011;37380;45.186;9.792;2022-10-30T01:00:45;44.67;;;31.80;;
51296;SDS011;37380;45.186;9.792;2022-10-30T01:03:17;41.38;;;30.52;;
51296;SDS011;37380;45.186;9.792;2022-10-30T01:05:47;41.67;;;29.95;;
51296;SDS011;37380;45.186;9.792;2022-10-30T01:08:18;39.35;;;32.83;;
51296;SDS011;37380;45.186;9.792;2022-10-30T01:10:46;52.35;;;33.88;;
51296;SDS011;37380;45.186;9.792;2022-10-30T01:13:14;52.20;;;33.75;;
51296;SDS011;37380;45.186;9.792;2022-10-30T01:25:13;51.67;;;31.73;;
51296;SDS011;37380;45.186;9.792;2022-10-30T01:28:27;43.42;;;29.85;;
51296;SDS011;37380;45.186;9.792;2022-10-30T01:34:37;47.85;;;33.47;;
51296;SDS011;37380;45.186;9.792;2022-10-30T01:37:21;51.38;;;32.42;;
51296;SDS011;37380;45.186;9.792;2022-10-30T01:40:23;51.85;;;34.33;;
51296;SDS011;37380;45.186;9.792;2022-10-30T01:42:53;44.35;;;33.65;;
51296;SDS011;37380;45.186;9.792;2022-10-30T01:51:38;50.00;;;35.65;;
51296;SDS011;37380;45.186;9.792;2022-10-30T02:00:17;57.97;;;37.35;;
51296;SDS011;37380;45.186;9.792;2022-10-30T02:02:54;51.03;;;33.97;;
51296;SDS011;37380;45.186;9.792;2022-10-30T02:05:55;60.90;;;35.63;;
51296;SDS011;37380;45.186;9.792;2022-10-30T02:08:56;64.97;;;38.55;;
51296;SDS011;37380;45.186;9.792;2022-10-30T02:12:00;56.05;;;36.00;;
51296;SDS011;37380;45.186;9.792;2022-10-30T02:14:34;47.85;;;35.67;;
51296;SDS011;37380;45.186;9.792;2022-10-30T02:17:12;61.50;;;36.07;;
51296;SDS011;37380;45.186;9.792;2022-10-30T02:20:13;58.75;;;40.63;;
51296;SDS011;37380;45.186;9.792;2022-10-30T02:25:08;55.15;;;37.88;;
51296;SDS011;37380;45.186;9.792;2022-10-30T02:27:35;74.35;;;41.80;;
51296;SDS011;37380;45.186;9.792;2022-10-30T02:30:09;64.10;;;42.50;;
51296;SDS011;37380;45.186;9.792;2022-10-30T02:33:12;62.03;;;43.92;;
51296;SDS011;37380;45.186;9.792;2022-10-30T02:36:07;60.88;;;40.65;;
51296;SDS011;37380;45.186;9.792;2022-10-30T02:38:33;59.08;;;43.40;;
51296;SDS011;37380;45.186;9.792;2022-10-30T02:41:01;69.85;;;44.08;;
51296;SDS011;37380;45.186;9.792;2022-10-30T02:43:28;62.60;;;42.38;;
51296;SDS011;37380;45.186;9.792;2022-10-30T02:45:55;58.53;;;41.03;;
51296;SDS011;37380;45.186;9.792;2022-10-30T02:48:22;72.18;;;42.15;;
51296;SDS011;37380;45.186;9.792;2022-10-30T02:50:59;56.90;;;41.58;;
51296;SDS011;37380;45.186;9.792;2022-10-30T02:54:00;58.33;;;37.53;;
51296;SDS011;37380;45.186;9.792;2022-10-30T02:57:01;53.22;;;37.92;;
51296;SDS011;37380;45.186;9.792;2022-10-30T02:59:33;53.13;;;37.78;;
51296;SDS011;37380;45.186;9.792;2022-10-30T03:02:00;45.83;;;36.80;;
51296;SDS011;37380;45.186;9.792;2022-10-30T03:04:27;58.22;;;38.30;;
51296;SDS011;37380;45.186;9.792;2022-10-30T03:06:55;58.30;;;40.35;;
51296;SDS011;37380;45.186;9.792;2022-10-30T03:09:22;64.07;;;42.35;;
51296;SDS011;37380;45.186;9.792;2022-10-30T03:11:49;60.10;;;43.35;;
51296;SDS011;37380;45.186;9.792;2022-10-30T03:14:16;70.65;;;42.33;;
51296;SDS011;37380;45.186;9.792;2022-10-30T03:16:43;60.78;;;41.75;;
51296;SDS011;37380;45.186;9.792;2022-10-30T03:19:10;68.13;;;42.70;;
51296;SDS011;37380;45.186;9.792;2022-10-30T03:21:37;54.42;;;39.83;;
51296;SDS011;37380;45.186;9.792;2022-10-30T03:24:04;55.72;;;42.90;;
51296;SDS011;37380;45.186;9.792;2022-10-30T03:26:32;67.72;;;43.05;;
51296;SDS011;37380;45.186;9.792;2022-10-30T03:29:11;65.25;;;46.65;;
51296;SDS011;37380;45.186;9.792;2022-10-30T03:32:09;49.75;;;31.65;;
51296;SDS011;37380;45.186;9.792;2022-10-30T03:35:15;51.45;;;33.35;;
51296;SDS011;37380;45.186;9.792;2022-10-30T03:37:54;48.38;;;35.25;;
51296;SDS011;37380;45.186;9.792;2022-10-30T03:40:21;60.60;;;42.75;;
51296;SDS011;37380;45.186;9.792;2022-10-30T03:42:48;61.83;;;39.25;;
51296;SDS011;37380;45.186;9.792;2022-10-30T03:45:22;57.03;;;38.88;;
51296;SDS011;37380;45.186;9.792;2022-10-30T03:48:17;58.90;;;38.55;;
51296;SDS011;37380;45.186;9.792;2022-10-30T03:50:45;62.00;;;43.83;;
51296;SDS011;37380;45.186;9.792;2022-10-30T03:53:19;60.33;;;40.78;;
51296;SDS011;37380;45.186;9.792;2022-10-30T03:56:13;59.47;;;39.65;;
51296;SDS011;37380;45.186;9.792;2022-10-30T04:01:25;59.95;;;40.63;;
51296;SDS011;37380;45.186;9.792;2022-10-30T04:04:19;54.42;;;38.47;;
51296;SDS011;37380;45.186;9.792;2022-10-30T04:06:46;60.03;;;40.83;;
51296;SDS011;37380;45.186;9.792;2022-10-30T04:09:15;64.85;;;40.45;;
51296;SDS011;37380;45.186;9.792;2022-10-30T04:11:42;53.63;;;38.20;;
51296;SDS011;37380;45.186;9.792;2022-10-30T04:14:09;62.60;;;42.10;;
51296;SDS011;37380;45.186;9.792;2022-10-30T04:16:36;58.03;;;38.28;;
51296;SDS011;37380;45.186;9.792;2022-10-30T04:19:03;50.55;;;38.90;;
51296;SDS011;37380;45.186;9.792;2022-10-30T04:21:30;64.70;;;39.45;;
51296;SDS011;37380;45.186;9.792;2022-10-30T04:23:57;58.15;;;39.85;;
51296;SDS011;37380;45.186;9.792;2022-10-30T04:26:28;51.83;;;36.95;;
51296;SDS011;37380;45.186;9.792;2022-10-30T04:28:56;53.03;;;38.08;;
51296;SDS011;37380;45.186;9.792;2022-10-30T04:31:29;59.80;;;36.22;;
51296;SDS011;37380;45.186;9.792;2022-10-30T04:34:30;49.45;;;36.30;;
51296;SDS011;37380;45.186;9.792;2022-10-30T04:37:31;57.15;;;37.88;;
51296;SDS011;37380;45.186;9.792;2022-10-30T04:40:27;59.92;;;39.20;;
51296;SDS011;37380;45.186;9.792;2022-10-30T04:43:00;47.50;;;35.13;;
51296;SDS011;37380;45.186;9.792;2022-10-30T04:45:28;50.53;;;32.65;;
51296;SDS011;37380;45.186;9.792;2022-10-30T04:48:03;45.90;;;35.67;;
51296;SDS011;37380;45.186;9.792;2022-10-30T04:50:34;42.30;;;35.40;;
51296;SDS011;37380;45.186;9.792;2022-10-30T04:53:15;50.88;;;37.10;;
51296;SDS011;37380;45.186;9.792;2022-10-30T04:56:18;47.45;;;34.78;;
51296;SDS011;37380;45.186;9.792;2022-10-30T04:59:13;47.03;;;34.60;;
51296;SDS011;37380;45.186;9.792;2022-10-30T05:01:40;52.53;;;35.35;;
51296;SDS011;37380;45.186;9.792;2022-10-30T05:04:07;66.55;;;39.13;;
51296;SDS011;37380;45.186;9.792;2022-10-30T05:06:34;50.78;;;37.22;;
51296;SDS011;37380;45.186;9.792;2022-10-30T05:09:01;51.38;;;38.42;;
51296;SDS011;37380;45.186;9.792;2022-10-30T05:11:39;45.85;;;35.25;;
51296;SDS011;37380;45.186;9.792;2022-10-30T05:14:06;53.03;;;36.53;;
51296;SDS011;37380;45.186;9.792;2022-10-30T05:16:33;52.95;;;34.22;;
51296;SDS011;37380;45.186;9.792;2022-10-30T05:19:02;54.83;;;33.90;;
51296;SDS011;37380;45.186;9.792;2022-10-30T05:21:32;50.50;;;34.67;;
51296;SDS011;37380;45.186;9.792;2022-10-30T05:23:58;45.80;;;32.40;;
51296;SDS011;37380;45.186;9.792;2022-10-30T05:26:29;50.20;;;35.20;;
51296;SDS011;37380;45.186;9.792;2022-10-30T05:29:02;44.40;;;32.90;;
51296;SDS011;37380;45.186;9.792;2022-10-30T05:32:03;45.42;;;32.90;;
51296;SDS011;37380;45.186;9.792;2022-10-30T05:35:00;40.95;;;31.48;;
51296;SDS011;37380;45.186;9.792;2022-10-30T05:37:27;43.22;;;32.28;;
51296;SDS011;37380;45.186;9.792;2022-10-30T05:39:54;48.35;;;34.75;;
51296;SDS011;37380;45.186;9.792;2022-10-30T05:42:26;45.17;;;33.05;;
51296;SDS011;37380;45.186;9.792;2022-10-30T05:44:56;44.35;;;32.83;;
51296;SDS011;37380;45.186;9.792;2022-10-30T05:47:39;49.72;;;33.03;;
51296;SDS011;37380;45.186;9.792;2022-10-30T05:50:43;49.63;;;35.45;;
51296;SDS011;37380;45.186;9.792;2022-10-30T05:53:46;43.15;;;32.05;;
51296;SDS011;37380;45.186;9.792;2022-10-30T05:56:45;44.30;;;33.25;;
51296;SDS011;37380;45.186;9.792;2022-10-30T05:59:12;60.15;;;35.78;;
51296;SDS011;37380;45.186;9.792;2022-10-30T06:01:39;55.40;;;36.80;;
51296;SDS011;37380;45.186;9.792;2022-10-30T06:04:10;54.72;;;37.05;;
51296;SDS011;37380;45.186;9.792;2022-10-30T06:06:37;66.78;;;39.10;;
51296;SDS011;37380;45.186;9.792;2022-10-30T06:09:04;58.45;;;41.15;;
51296;SDS011;37380;45.186;9.792;2022-10-30T06:11:42;57.70;;;39.78;;
51296;SDS011;37380;45.186;9.792;2022-10-30T06:14:10;76.22;;;42.03;;
51296;SDS011;37380;45.186;9.792;2022-10-30T06:16:46;57.65;;;38.92;;
51296;SDS011;37380;45.186;9.792;2022-10-30T06:19:32;66.45;;;40.40;;
51296;SDS011;37380;45.186;9.792;2022-10-30T06:22:17;61.65;;;42.10;;
51296;SDS011;37380;45.186;9.792;2022-10-30T06:24:48;71.60;;;42.33;;
51296;SDS011;37380;45.186;9.792;2022-10-30T06:27:17;64.80;;;42.67;;
51296;SDS011;37380;45.186;9.792;2022-10-30T06:29:51;66.75;;;42.08;;
51296;SDS011;37380;45.186;9.792;2022-10-30T06:32:46;66.55;;;41.20;;
51296;SDS011;37380;45.186;9.792;2022-10-30T06:35:19;66.88;;;42.88;;
51296;SDS011;37380;45.186;9.792;2022-10-30T06:38:14;65.38;;;42.10;;
51296;SDS011;37380;45.186;9.792;2022-10-30T06:40:48;57.20;;;39.88;;
51296;SDS011;37380;45.186;9.792;2022-10-30T06:43:43;55.28;;;39.72;;
51296;SDS011;37380;45.186;9.792;2022-10-30T06:46:18;50.65;;;38.58;;
51296;SDS011;37380;45.186;9.792;2022-10-30T06:48:46;55.65;;;38.80;;
51296;SDS011;37380;45.186;9.792;2022-10-30T06:51:14;52.97;;;34.83;;
51296;SDS011;37380;45.186;9.792;2022-10-30T06:53:49;55.97;;;32.70;;
51296;SDS011;37380;45.186;9.792;2022-10-30T06:56:50;46.42;;;32.08;;
51296;SDS011;37380;45.186;9.792;2022-10-30T07:00:12;52.30;;;33.72;;
51296;SDS011;37380;45.186;9.792;2022-10-30T07:03:38;38.88;;;31.08;;
51296;SDS011;37380;45.186;9.792;2022-10-30T07:06:05;42.03;;;30.70;;
51296;SDS011;37380;45.186;9.792;2022-10-30T07:08:32;47.50;;;28.45;;
51296;SDS011;37380;45.186;9.792;2022-10-30T07:10:59;40.08;;;28.77;;
51296;SDS011;37380;45.186;9.792;2022-10-30T07:13:46;42.45;;;27.02;;
51296;SDS011;37380;45.186;9.792;2022-10-30T07:16:26;49.53;;;28.13;;
51296;SDS011;37380;45.186;9.792;2022-10-30T07:18:59;47.85;;;25.45;;
51296;SDS011;37380;45.186;9.792;2022-10-30T07:21:54;38.13;;;26.77;;
51296;SDS011;37380;45.186;9.792;2022-10-30T07:24:21;33.40;;;25.23;;
51296;SDS011;37380;45.186;9.792;2022-10-30T07:27:14;42.10;;;24.50;;
51296;SDS011;37380;45.186;9.792;2022-10-30T07:30:08;35.28;;;24.58;;
51296;SDS011;37380;45.186;9.792;2022-10-30T07:33:19;39.75;;;23.73;;
51296;SDS011;37380;45.186;9.792;2022-10-30T07:36:16;45.80;;;23.20;;
51296;SDS011;37380;45.186;9.792;2022-10-30T07:38:49;27.40;;;20.27;;
51296;SDS011;37380;45.186;9.792;2022-10-30T07:41:26;31.67;;;21.00;;
51296;SDS011;37380;45.186;9.792;2022-10-30T07:44:13;33.83;;;21.27;;
51296;SDS011;37380;45.186;9.792;2022-10-30T07:47:07;41.60;;;21.45;;
51296;SDS011;37380;45.186;9.792;2022-10-30T07:49:55;24.92;;;19.65;;
51296;SDS011;37380;45.186;9.792;2022-10-30T07:52:22;33.67;;;21.63;;
51296;SDS011;37380;45.186;9.792;2022-10-30T07:54:56;25.67;;;20.33;;
51296;SDS011;37380;45.186;9.792;2022-10-30T07:57:59;38.28;;;22.83;;
51296;SDS011;37380;45.186;9.792;2022-10-30T08:01:21;38.47;;;21.52;;
51296;SDS011;37380;45.186;9.792;2022-10-30T08:04:30;34.10;;;21.63;;
51296;SDS011;37380;45.186;9.792;2022-10-30T08:07:07;30.70;;;22.08;;
51296;SDS011;37380;45.186;9.792;2022-10-30T08:09:34;35.50;;;21.17;;
51296;SDS011;37380;45.186;9.792;2022-10-30T08:12:01;32.72;;;21.52;;
51296;SDS011;37380;45.186;9.792;2022-10-30T08:14:29;31.27;;;20.05;;
51296;SDS011;37380;45.186;9.792;2022-10-30T08:16:56;29.60;;;22.30;;
51296;SDS011;37380;45.186;9.792;2022-10-30T08:19:24;34.22;;;21.23;;
51296;SDS011;37380;45.186;9.792;2022-10-30T08:21:51;50.03;;;25.23;;
51296;SDS011;37380;45.186;9.792;2022-10-30T08:24:24;35.58;;;23.40;;
51296;SDS011;37380;45.186;9.792;2022-10-30T08:27:02;39.67;;;23.13;;
51296;SDS011;37380;45.186;9.792;2022-10-30T08:29:56;38.75;;;23.63;;
51296;SDS011;37380;45.186;9.792;2022-10-30T08:32:58;30.73;;;22.63;;
51296;SDS011;37380;45.186;9.792;2022-10-30T08:36:02;32.58;;;23.92;;
51296;SDS011;37380;45.186;9.792;2022-10-30T08:38:31;39.47;;;25.27;;
51296;SDS011;37380;45.186;9.792;2022-10-30T08:41:08;33.90;;;25.45;;
51296;SDS011;37380;45.186;9.792;2022-10-30T08:43:42;31.45;;;22.13;;
51296;SDS011;37380;45.186;9.792;2022-10-30T08:46:09;48.30;;;26.80;;
51296;SDS011;37380;45.186;9.792;2022-10-30T08:48:36;37.45;;;26.40;;
51296;SDS011;37380;45.186;9.792;2022-10-30T08:51:03;36.72;;;27.92;;
51296;SDS011;37380;45.186;9.792;2022-10-30T08:53:42;35.97;;;27.05;;
51296;SDS011;37380;45.186;9.792;2022-10-30T08:56:43;44.00;;;28.02;;
51296;SDS011;37380;45.186;9.792;2022-10-30T08:59:44;48.55;;;28.40;;
51296;SDS011;37380;45.186;9.792;2022-10-30T09:02:57;39.05;;;25.77;;
51296;SDS011;37380;45.186;9.792;2022-10-30T09:05:43;39.60;;;27.27;;
51296;SDS011;37380;45.186;9.792;2022-10-30T09:08:16;47.92;;;27.38;;
51296;SDS011;37380;45.186;9.792;2022-10-30T09:11:01;37.78;;;25.67;;
51296;SDS011;37380;45.186;9.792;2022-10-30T09:13:29;41.85;;;26.38;;
51296;SDS011;37380;45.186;9.792;2022-10-30T09:16:01;37.17;;;26.13;;
51296;SDS011;37380;45.186;9.792;2022-10-30T09:18:31;45.22;;;25.65;;
51296;SDS011;37380;45.186;9.792;2022-10-30T09:20:59;39.63;;;27.38;;
51296;SDS011;37380;45.186;9.792;2022-10-30T09:23:35;36.13;;;25.92;;
51296;SDS011;37380;45.186;9.792;2022-10-30T09:26:28;38.85;;;29.42;;
51296;SDS011;37380;45.186;9.792;2022-10-30T09:29:36;42.30;;;26.10;;
51296;SDS011;37380;45.186;9.792;2022-10-30T09:32:42;43.85;;;26.92;;
51296;SDS011;37380;45.186;9.792;2022-10-30T09:35:58;37.58;;;26.08;;
51296;SDS011;37380;45.186;9.792;2022-10-30T09:38:25;45.30;;;26.52;;
51296;SDS011;37380;45.186;9.792;2022-10-30T09:40:57;39.35;;;24.60;;
51296;SDS011;37380;45.186;9.792;2022-10-30T09:51:47;36.83;;;24.30;;
51296;SDS011;37380;45.186;9.792;2022-10-30T09:58:01;46.88;;;25.40;;
51296;SDS011;37380;45.186;9.792;2022-10-30T10:00:41;44.50;;;22.70;;
51296;SDS011;37380;45.186;9.792;2022-10-30T10:04:00;33.95;;;21.42;;
51296;SDS011;37380;45.186;9.792;2022-10-30T10:06:49;41.10;;;22.98;;
51296;SDS011;37380;45.186;9.792;2022-10-30T10:09:41;38.03;;;21.48;;
51296;SDS011;37380;45.186;9.792;2022-10-30T10:12:34;33.72;;;20.67;;
51296;SDS011;37380;45.186;9.792;2022-10-30T10:15:54;34.75;;;19.02;;
51296;SDS011;37380;45.186;9.792;2022-10-30T10:21:26;35.13;;;19.00;;
51296;SDS011;37380;45.186;9.792;2022-10-30T10:23:55;32.92;;;18.98;;
51296;SDS011;37380;45.186;9.792;2022-10-30T10:26:43;35.47;;;18.73;;
51296;SDS011;37380;45.186;9.792;2022-10-30T10:50:23;26.10;;;14.27;;
51296;SDS011;37380;45.186;9.792;2022-10-30T10:53:12;27.00;;;13.27;;
51296;SDS011;37380;45.186;9.792;2022-10-30T10:56:14;40.10;;;12.95;;
51296;SDS011;37380;45.186;9.792;2022-10-30T10:58:52;20.25;;;13.55;;
51296;SDS011;37380;45.186;9.792;2022-10-30T11:04:50;12.95;;;11.63;;
51296;SDS011;37380;45.186;9.792;2022-10-30T11:07:20;26.75;;;12.95;;
51296;SDS011;37380;45.186;9.792;2022-10-30T11:09:53;25.40;;;12.80;;
51296;SDS011;37380;45.186;9.792;2022-10-30T11:12:26;22.30;;;11.30;;
51296;SDS011;37380;45.186;9.792;2022-10-30T11:15:05;20.88;;;10.88;;
51296;SDS011;37380;45.186;9.792;2022-10-30T11:17:40;26.23;;;11.48;;
51296;SDS011;37380;45.186;9.792;2022-10-30T11:23:48;30.47;;;10.10;;
51296;SDS011;37380;45.186;9.792;2022-10-30T11:26:42;20.88;;;10.80;;
51296;SDS011;37380;45.186;9.792;2022-10-30T11:29:17;24.55;;;11.30;;
51296;SDS011;37380;45.186;9.792;2022-10-30T11:32:20;18.17;;;10.40;;
51296;SDS011;37380;45.186;9.792;2022-10-30T11:35:07;27.80;;;11.18;;
51296;SDS011;37380;45.186;9.792;2022-10-30T11:38:11;16.80;;;9.40;;
51296;SDS011;37380;45.186;9.792;2022-10-30T11:40:47;21.20;;;10.13;;
51296;SDS011;37380;45.186;9.792;2022-10-30T11:43:19;28.38;;;10.77;;
51296;SDS011;37380;45.186;9.792;2022-10-30T11:45:49;16.38;;;10.18;;
51296;SDS011;37380;45.186;9.792;2022-10-30T11:50:58;19.13;;;10.73;;
51296;SDS011;37380;45.186;9.792;2022-10-30T11:53:33;20.77;;;9.98;;
51296;SDS011;37380;45.186;9.792;2022-10-30T11:56:43;24.27;;;10.75;;
51296;SDS011;37380;45.186;9.792;2022-10-30T11:59:40;22.05;;;10.82;;
51296;SDS011;37380;45.186;9.792;2022-10-30T12:02:20;18.20;;;9.05;;
51296;SDS011;37380;45.186;9.792;2022-10-30T12:04:50;18.92;;;10.30;;
51296;SDS011;37380;45.186;9.792;2022-10-30T12:07:19;20.20;;;10.52;;
51296;SDS011;37380;45.186;9.792;2022-10-30T12:09:50;32.95;;;10.00;;
51296;SDS011;37380;45.186;9.792;2022-10-30T12:12:35;26.98;;;10.23;;
51296;SDS011;37380;45.186;9.792;2022-10-30T12:18:07;27.95;;;9.50;;
51296;SDS011;37380;45.186;9.792;2022-10-30T12:20:42;17.85;;;9.13;;
51296;SDS011;37380;45.186;9.792;2022-10-30T12:23:24;17.15;;;8.35;;
51296;SDS011;37380;45.186;9.792;2022-10-30T12:26:28;22.58;;;8.90;;
51296;SDS011;37380;45.186;9.792;2022-10-30T12:29:42;21.98;;;7.63;;
51296;SDS011;37380;45.186;9.792;2022-10-30T12:33:03;22.33;;;8.35;;
51296;SDS011;37380;45.186;9.792;2022-10-30T12:38:23;20.80;;;8.45;;
51296;SDS011;37380;45.186;9.792;2022-10-30T12:43:44;17.33;;;9.05;;
51296;SDS011;37380;45.186;9.792;2022-10-30T12:46:25;10.73;;;6.90;;
51296;SDS011;37380;45.186;9.792;2022-10-30T12:49:06;19.48;;;8.65;;
51296;SDS011;37380;45.186;9.792;2022-10-30T13:01:34;18.92;;;8.43;;
51296;SDS011;37380;45.186;9.792;2022-10-30T13:04:07;19.15;;;8.65;;
51296;SDS011;37380;45.186;9.792;2022-10-30T13:06:41;21.88;;;7.18;;
51296;SDS011;37380;45.186;9.792;2022-10-30T13:09:20;27.52;;;7.60;;
51296;SDS011;37380;45.186;9.792;2022-10-30T13:11:53;15.55;;;7.47;;
51296;SDS011;37380;45.186;9.792;2022-10-30T13:14:37;23.75;;;8.40;;
51296;SDS011;37380;45.186;9.792;2022-10-30T13:17:36;20.17;;;8.02;;
51296;SDS011;37380;45.186;9.792;2022-10-30T13:20:07;27.83;;;8.55;;
51296;SDS011;37380;45.186;9.792;2022-10-30T13:22:52;16.50;;;7.30;;
51296;SDS011;37380;45.186;9.792;2022-10-30T13:25:31;12.68;;;8.02;;
51296;SDS011;37380;45.186;9.792;2022-10-30T13:28:47;14.55;;;8.02;;
51296;SDS011;37380;45.186;9.792;2022-10-30T13:35:29;22.38;;;8.13;;
51296;SDS011;37380;45.186;9.792;2022-10-30T13:40:51;23.13;;;8.50;;
51296;SDS011;37380;45.186;9.792;2022-10-30T13:53:19;15.73;;;9.75;;
51296;SDS011;37380;45.186;9.792;2022-10-30T13:56:19;21.63;;;9.63;;
51296;SDS011;37380;45.186;9.792;2022-10-30T14:02:02;18.35;;;9.45;;
51296;SDS011;37380;45.186;9.792;2022-10-30T14:07:48;20.33;;;9.98;;
51296;SDS011;37380;45.186;9.792;2022-10-30T14:10:47;16.15;;;8.70;;
51296;SDS011;37380;45.186;9.792;2022-10-30T14:13:50;16.17;;;9.35;;
51296;SDS011;37380;45.186;9.792;2022-10-30T14:21:55;18.50;;;7.70;;
51296;SDS011;37380;45.186;9.792;2022-10-30T14:24:50;34.35;;;9.85;;
51296;SDS011;37380;45.186;9.792;2022-10-30T14:27:21;19.23;;;10.02;;
51296;SDS011;37380;45.186;9.792;2022-10-30T14:30:00;24.27;;;8.13;;
51296;SDS011;37380;45.186;9.792;2022-10-30T14:33:01;23.65;;;9.15;;
51296;SDS011;37380;45.186;9.792;2022-10-30T14:42:12;27.25;;;9.57;;
51296;SDS011;37380;45.186;9.792;2022-10-30T14:44:51;27.17;;;10.23;;
51296;SDS011;37380;45.186;9.792;2022-10-30T14:56:57;23.38;;;10.93;;
51296;SDS011;37380;45.186;9.792;2022-10-30T14:59:33;21.65;;;10.00;;
51296;SDS011;37380;45.186;9.792;2022-10-30T15:07:37;16.40;;;10.40;;
51296;SDS011;37380;45.186;9.792;2022-10-30T15:10:34;23.20;;;9.00;;
51296;SDS011;37380;45.186;9.792;2022-10-30T15:13:36;22.58;;;10.73;;
51296;SDS011;37380;45.186;9.792;2022-10-30T15:16:37;25.33;;;9.98;;
51296;SDS011;37380;45.186;9.792;2022-10-30T15:19:33;20.00;;;10.15;;
51296;SDS011;37380;45.186;9.792;2022-10-30T15:22:01;15.30;;;9.18;;
51296;SDS011;37380;45.186;9.792;2022-10-30T15:24:48;16.98;;;9.45;;
51296;SDS011;37380;45.186;9.792;2022-10-30T15:27:17;24.13;;;9.82;;
51296;SDS011;37380;45.186;9.792;2022-10-30T15:29:54;16.15;;;8.88;;
51296;SDS011;37380;45.186;9.792;2022-10-30T15:32:52;22.65;;;9.10;;
51296;SDS011;37380;45.186;9.792;2022-10-30T15:35:21;27.70;;;9.93;;
51296;SDS011;37380;45.186;9.792;2022-10-30T15:38:05;24.42;;;8.68;;
51296;SDS011;37380;45.186;9.792;2022-10-30T15:41:07;19.80;;;8.45;;
51296;SDS011;37380;45.186;9.792;2022-10-30T15:44:10;26.27;;;8.98;;
51296;SDS011;37380;45.186;9.792;2022-10-30T15:47:17;24.97;;;8.37;;
51296;SDS011;37380;45.186;9.792;2022-10-30T15:50:19;25.80;;;9.10;;
51296;SDS011;37380;45.186;9.792;2022-10-30T15:53:15;23.17;;;8.63;;
51296;SDS011;37380;45.186;9.792;2022-10-30T15:56:31;10.55;;;8.35;;
51296;SDS011;37380;45.186;9.792;2022-10-30T15:59:50;24.53;;;10.40;;
51296;SDS011;37380;45.186;9.792;2022-10-30T16:02:21;24.10;;;10.30;;
51296;SDS011;37380;45.186;9.792;2022-10-30T16:04:50;21.10;;;8.38;;
51296;SDS011;37380;45.186;9.792;2022-10-30T16:09:52;16.45;;;8.65;;
51296;SDS011;37380;45.186;9.792;2022-10-30T16:12:24;21.05;;;10.25;;
51296;SDS011;37380;45.186;9.792;2022-10-30T16:15:01;14.82;;;7.78;;
51296;SDS011;37380;45.186;9.792;2022-10-30T16:18:24;21.77;;;7.82;;
51296;SDS011;37380;45.186;9.792;2022-10-30T16:21:28;12.55;;;7.97;;
51296;SDS011;37380;45.186;9.792;2022-10-30T16:24:24;18.08;;;9.65;;
51296;SDS011;37380;45.186;9.792;2022-10-30T16:27:04;37.13;;;9.20;;
51296;SDS011;37380;45.186;9.792;2022-10-30T16:29:56;37.25;;;9.02;;
51296;SDS011;37380;45.186;9.792;2022-10-30T16:32:52;19.15;;;11.23;;
51296;SDS011;37380;45.186;9.792;2022-10-30T16:35:23;14.52;;;10.80;;
51296;SDS011;37380;45.186;9.792;2022-10-30T16:37:51;25.48;;;11.32;;
51296;SDS011;37380;45.186;9.792;2022-10-30T16:40:23;23.05;;;11.48;;
51296;SDS011;37380;45.186;9.792;2022-10-30T16:42:55;28.02;;;10.88;;
51296;SDS011;37380;45.186;9.792;2022-10-30T16:51:13;21.17;;;10.75;;
51296;SDS011;37380;45.186;9.792;2022-10-30T16:54:17;28.52;;;12.75;;
51296;SDS011;37380;45.186;9.792;2022-10-30T16:57:24;26.73;;;11.05;;
51296;SDS011;37380;45.186;9.792;2022-10-30T17:00:22;23.73;;;11.02;;
51296;SDS011;37380;45.186;9.792;2022-10-30T17:02:53;27.77;;;12.02;;
51296;SDS011;37380;45.186;9.792;2022-10-30T17:05:25;20.45;;;12.43;;
51296;SDS011;37380;45.186;9.792;2022-10-30T17:08:01;31.45;;;11.50;;
51296;SDS011;37380;45.186;9.792;2022-10-30T17:10:57;23.98;;;11.15;;
51296;SDS011;37380;45.186;9.792;2022-10-30T17:13:56;26.70;;;12.68;;
51296;SDS011;37380;45.186;9.792;2022-10-30T17:16:29;35.75;;;13.50;;
51296;SDS011;37380;45.186;9.792;2022-10-30T17:18:59;33.30;;;13.75;;
51296;SDS011;37380;45.186;9.792;2022-10-30T17:21:38;30.83;;;13.40;;
51296;SDS011;37380;45.186;9.792;2022-10-30T17:24:18;25.85;;;14.30;;
51296;SDS011;37380;45.186;9.792;2022-10-30T17:30:26;26.08;;;13.40;;
51296;SDS011;37380;45.186;9.792;2022-10-30T17:36:29;24.10;;;15.70;;
51296;SDS011;37380;45.186;9.792;2022-10-30T17:38:56;28.13;;;16.30;;
51296;SDS011;37380;45.186;9.792;2022-10-30T17:41:23;22.73;;;14.80;;
51296;SDS011;37380;45.186;9.792;2022-10-30T17:43:51;35.90;;;17.05;;
51296;SDS011;37380;45.186;9.792;2022-10-30T17:46:20;33.65;;;16.85;;
51296;SDS011;37380;45.186;9.792;2022-10-30T17:48:55;21.48;;;15.25;;
51296;SDS011;37380;45.186;9.792;2022-10-30T17:51:57;27.80;;;14.30;;
51296;SDS011;37380;45.186;9.792;2022-10-30T17:55:03;33.22;;;15.63;;
51296;SDS011;37380;45.186;9.792;2022-10-30T17:58:14;36.35;;;16.48;;
51296;SDS011;37380;45.186;9.792;2022-10-30T18:00:48;38.28;;;16.08;;
51296;SDS011;37380;45.186;9.792;2022-10-30T18:03:50;32.00;;;16.25;;
51296;SDS011;37380;45.186;9.792;2022-10-30T18:06:25;47.08;;;17.15;;
51296;SDS011;37380;45.186;9.792;2022-10-30T18:08:54;25.92;;;16.00;;
51296;SDS011;37380;45.186;9.792;2022-10-30T18:11:22;35.15;;;18.27;;
51296;SDS011;37380;45.186;9.792;2022-10-30T18:13:50;34.70;;;20.00;;
51296;SDS011;37380;45.186;9.792;2022-10-30T18:16:24;40.30;;;20.75;;
51296;SDS011;37380;45.186;9.792;2022-10-30T18:19:18;30.23;;;20.70;;
51296;SDS011;37380;45.186;9.792;2022-10-30T18:21:45;38.72;;;20.05;;
51296;SDS011;37380;45.186;9.792;2022-10-30T18:24:23;31.55;;;19.30;;
51296;SDS011;37380;45.186;9.792;2022-10-30T18:27:17;48.58;;;21.27;;
51296;SDS011;37380;45.186;9.792;2022-10-30T18:29:51;44.83;;;22.40;;